Mid Fortune — ZGCG8 — position and weather

sailwx.info

Track history (hours):
 
Tides and Currents Weather Stations Pressure Air Temp Water Temp Dewpoint Dewpoint Depression Visibility Wind Speed Wind Dir Waves Ship Positions

Mid Fortune

Last reported at 2015-Aug-17 12:30 UTC. Time now 2015-Aug-28 09:32 UTC.
Position N 31°37' E 032°06'.
Warning: this ship's position is 10 days out of date.

Length 147 m; draft 10 m.

Type: Ship (hazmat cat B). MMSI: 319182000.

Date/timePositionNaut miles runAvg speedWind from/ knotsBaromVisibWave heightAir tempDewpointWater temp
2015-Aug-17 12:30N 31°37' E 032°06'  
2015-Aug-15 04:33N 35°33' E 017°31'7013.9
2015-Aug-14 23:33N 35°50' E 016°08'1413.6
2015-Aug-14 22:33N 35°54' E 015°51'1713.8
2015-Aug-14 21:21N 35°58' E 015°32'1113.9
2015-Aug-14 20:33N 36°01' E 015°18'1413.8
2015-Aug-14 19:33N 36°04' E 015°02'1413.5
2015-Aug-14 18:33N 36°07' E 014°46'1313.4
2015-Aug-14 17:33N 36°11' E 014°30'1313.4
2015-Aug-14 16:33N 36°14' E 014°14'1413.6
2015-Aug-14 15:33N 36°18' E 013°57'1313.4
2015-Aug-14 14:34N 36°21' E 013°41'1413.8
2015-Aug-14 13:34N 36°24' E 013°25'1414.2
2015-Aug-14 12:34N 36°28' E 013°08'1414.3
2015-Aug-14 11:34N 36°34' E 012°52'1514.6
2015-Aug-14 10:34N 36°42' E 012°36'1514.7
2015-Aug-14 09:34N 36°49' E 012°20'1414.5
2015-Aug-14 08:33N 36°57' E 012°05'2014.1
2015-Aug-14 07:10N 37°07' E 011°44'813.7
2015-Aug-14 06:33N 37°11' E 011°35'1413.8
2015-Aug-14 05:34N 37°18' E 011°20'1414.0
2015-Aug-14 04:32N 37°24' E 011°04'1514.1
2015-Aug-14 03:27N 37°28' E 010°45'2913.9
2015-Aug-14 01:20N 37°34' E 010°08'1114.2
2015-Aug-14 00:32N 37°34' E 009°54'1414.2
2015-Aug-13 23:33N 37°36' E 009°37'1414.1
2015-Aug-13 22:32N 37°38' E 009°19'1414.0
2015-Aug-13 21:32N 37°39' E 009°01'1313.4
2015-Aug-13 20:33N 37°38' E 008°45'2713.6
2015-Aug-13 18:33N 37°34' E 008°11'9313.3
2015-Aug-13 11:33N 37°22' E 006°15'1412.8
2015-Aug-13 10:26N 37°19' E 005°57'1213.4
2015-Aug-13 09:33N 37°17' E 005°42'1413.9
2015-Aug-13 08:33N 37°15' E 005°25'1514.2
2015-Aug-13 07:32N 37°13' E 005°07'1813.8
2015-Aug-13 06:16N 37°11' E 004°45'1013.5
2015-Aug-13 05:33N 37°09' E 004°33'1413.9
2015-Aug-13 04:33N 37°07' E 004°16'1413.8
2015-Aug-13 03:30N 37°05' E 003°58'1313.6
2015-Aug-13 02:33N 37°03' E 003°42'4313.8
2015-Aug-12 23:25N 36°57' E 002°49'1213.6
2015-Aug-12 22:31N 36°55' E 002°33'1313.5
2015-Aug-12 21:33N 36°53' E 002°17'2713.5
2015-Aug-12 19:32N 36°49' E 001°44'1413.4
2015-Aug-12 18:29N 36°47' E 001°26'1314.0
2015-Aug-12 17:33N 36°45' E 001°11'1514.1
2015-Aug-12 16:30N 36°43' E 000°52'1314.0
2015-Aug-12 15:33N 36°41' E 000°36'1413.9
2015-Aug-12 14:33N 36°39' E 000°18'1413.6
2015-Aug-12 13:33N 36°37' E 000°02'1413.7
2015-Aug-12 12:33N 36°35' W 000°15'3013.5
2015-Aug-12 10:19N 36°31' W 000°52'1113.4
2015-Aug-12 09:31N 36°29' W 001°05'1313.7
2015-Aug-12 08:32N 36°27' W 001°22'1413.3
2015-Aug-12 07:31N 36°26' W 001°39'1313.5
2015-Aug-12 06:31N 36°23' W 001°55'1713.8
2015-Aug-12 05:17N 36°21' W 002°16'3913.4
2015-Aug-12 02:22N 36°17' W 003°04'172 8.9
2015-Aug-11 07:05N 35°47' W 006°34'712.8
2015-Aug-11 06:33N 35°43' W 006°41'1312.4
2015-Aug-11 05:31N 35°32' W 006°47'1213.0
2015-Aug-11 04:33N 35°21' W 006°56'1513.2
2015-Aug-11 03:28N 35°10' W 007°07'1313.3
2015-Aug-11 02:28N 34°59' W 007°16'1313.7
2015-Aug-11 01:33N 34°49' W 007°25'1413.5
2015-Aug-11 00:33N 34°38' W 007°35'1313.3
2015-Aug-10 23:33N 34°27' W 007°44'1513.2
2015-Aug-10 22:24N 34°15' W 007°55'1113.0
2015-Aug-10 21:33N 34°06' W 008°03'1313.1
2015-Aug-10 20:32N 33°55' W 008°13'1313.0
2015-Aug-10 19:33N 33°45' W 008°22'1312.7
2015-Aug-10 18:33N 33°35' W 008°31'1312.6
2015-Aug-10 17:33N 33°25' W 008°39'1312.7
2015-Aug-10 16:32N 33°14' W 008°49'1612.5
2015-Aug-10 15:14N 33°01' W 009°00'2312.5
2015-Aug-10 13:22N 32°42' W 009°16'1112.1
2015-Aug-10 12:27N 32°33' W 009°23'  
Track history (hours):
 
Tides and Currents Weather Stations Pressure Air Temp Water Temp Dewpoint Dewpoint Depression Visibility Wind Speed Wind Dir Waves Ship Positions

Mid Fortune

Last reported at 2015-Aug-17 12:30 UTC. Time now 2015-Aug-28 09:32 UTC.
Position N 31°37' E 032°06'.
Warning: this ship's position is 10 days out of date.

Length 147 m; draft 10 m.

Type: Ship (hazmat cat B). MMSI: 319182000.

Date/timePositionNaut miles runAvg speedWind from/ knotsBaromVisibWave heightAir tempDewpointWater temp
2015-Aug-17 12:30N 31°37' E 032°06'  
2015-Aug-15 04:33N 35°33' E 017°31'7013.9
2015-Aug-14 23:33N 35°50' E 016°08'1413.6
2015-Aug-14 22:33N 35°54' E 015°51'1713.8
2015-Aug-14 21:21N 35°58' E 015°32'1113.9
2015-Aug-14 20:33N 36°01' E 015°18'1413.8
2015-Aug-14 19:33N 36°04' E 015°02'1413.5
2015-Aug-14 18:33N 36°07' E 014°46'1313.4
2015-Aug-14 17:33N 36°11' E 014°30'1313.4
2015-Aug-14 16:33N 36°14' E 014°14'1413.6
2015-Aug-14 15:33N 36°18' E 013°57'1313.4
2015-Aug-14 14:34N 36°21' E 013°41'1413.8
2015-Aug-14 13:34N 36°24' E 013°25'1414.2
2015-Aug-14 12:34N 36°28' E 013°08'1414.3
2015-Aug-14 11:34N 36°34' E 012°52'1514.6
2015-Aug-14 10:34N 36°42' E 012°36'1514.7
2015-Aug-14 09:34N 36°49' E 012°20'1414.5
2015-Aug-14 08:33N 36°57' E 012°05'2014.1
2015-Aug-14 07:10N 37°07' E 011°44'813.7
2015-Aug-14 06:33N 37°11' E 011°35'1413.8
2015-Aug-14 05:34N 37°18' E 011°20'1414.0
2015-Aug-14 04:32N 37°24' E 011°04'1514.1
2015-Aug-14 03:27N 37°28' E 010°45'2913.9
2015-Aug-14 01:20N 37°34' E 010°08'1114.2
2015-Aug-14 00:32N 37°34' E 009°54'1414.2
2015-Aug-13 23:33N 37°36' E 009°37'1414.1
2015-Aug-13 22:32N 37°38' E 009°19'1414.0
2015-Aug-13 21:32N 37°39' E 009°01'1313.4
2015-Aug-13 20:33N 37°38' E 008°45'2713.6
2015-Aug-13 18:33N 37°34' E 008°11'9313.3
2015-Aug-13 11:33N 37°22' E 006°15'1412.8
2015-Aug-13 10:26N 37°19' E 005°57'1213.4
2015-Aug-13 09:33N 37°17' E 005°42'1413.9
2015-Aug-13 08:33N 37°15' E 005°25'1514.2
2015-Aug-13 07:32N 37°13' E 005°07'1813.8
2015-Aug-13 06:16N 37°11' E 004°45'1013.5
2015-Aug-13 05:33N 37°09' E 004°33'1413.9
2015-Aug-13 04:33N 37°07' E 004°16'1413.8
2015-Aug-13 03:30N 37°05' E 003°58'1313.6
2015-Aug-13 02:33N 37°03' E 003°42'4313.8
2015-Aug-12 23:25N 36°57' E 002°49'1213.6
2015-Aug-12 22:31N 36°55' E 002°33'1313.5
2015-Aug-12 21:33N 36°53' E 002°17'2713.5
2015-Aug-12 19:32N 36°49' E 001°44'1413.4
2015-Aug-12 18:29N 36°47' E 001°26'1314.0
2015-Aug-12 17:33N 36°45' E 001°11'1514.1
2015-Aug-12 16:30N 36°43' E 000°52'1314.0
2015-Aug-12 15:33N 36°41' E 000°36'1413.9
2015-Aug-12 14:33N 36°39' E 000°18'1413.6
2015-Aug-12 13:33N 36°37' E 000°02'1413.7
2015-Aug-12 12:33N 36°35' W 000°15'3013.5
2015-Aug-12 10:19N 36°31' W 000°52'1113.4
2015-Aug-12 09:31N 36°29' W 001°05'1313.7
2015-Aug-12 08:32N 36°27' W 001°22'1413.3
2015-Aug-12 07:31N 36°26' W 001°39'1313.5
2015-Aug-12 06:31N 36°23' W 001°55'1713.8
2015-Aug-12 05:17N 36°21' W 002°16'3913.4
2015-Aug-12 02:22N 36°17' W 003°04'172 8.9
2015-Aug-11 07:05N 35°47' W 006°34'712.8
2015-Aug-11 06:33N 35°43' W 006°41'1312.4
2015-Aug-11 05:31N 35°32' W 006°47'1213.0
2015-Aug-11 04:33N 35°21' W 006°56'1513.2
2015-Aug-11 03:28N 35°10' W 007°07'1313.3
2015-Aug-11 02:28N 34°59' W 007°16'1313.7
2015-Aug-11 01:33N 34°49' W 007°25'1413.5
2015-Aug-11 00:33N 34°38' W 007°35'1313.3
2015-Aug-10 23:33N 34°27' W 007°44'1513.2
2015-Aug-10 22:24N 34°15' W 007°55'1113.0
2015-Aug-10 21:33N 34°06' W 008°03'1313.1
2015-Aug-10 20:32N 33°55' W 008°13'1313.0
2015-Aug-10 19:33N 33°45' W 008°22'1312.7
2015-Aug-10 18:33N 33°35' W 008°31'1312.6
2015-Aug-10 17:33N 33°25' W 008°39'1312.7
2015-Aug-10 16:32N 33°14' W 008°49'1612.5
2015-Aug-10 15:14N 33°01' W 009°00'2312.5
2015-Aug-10 13:22N 32°42' W 009°16'1112.1
2015-Aug-10 12:27N 32°33' W 009°23'  

Dump ship's entire track history